Albany (ALB/KALB)

Map

Destinations

Information

Location
Albany, NY
Local Time
19:44 / 7:44 pm
GMT Time
23:44 / 11:44 pm
Gates
No FAA reported delays
METAR KALB 232251Z 27004KT 10SM FEW250 22/15 A3004 RMK AO2 SLP172 T02220150
TAF KALB 231727Z 2318/2418 35006KT P6SM FEW250 FM232300 VRB02KT P6SM SKC FM240800 00000KT 5SM BR VCFG SKC FM241300 34004KT P6SM SKC